createdAt,value
2023-02-18T00:00:29.075Z,11.30
2023-02-18T00:02:56.258Z,11.30
2023-02-18T00:05:23.097Z,11.31
2023-02-18T00:07:49.885Z,11.30
2023-02-18T00:10:16.943Z,11.32
2023-02-18T00:12:44.124Z,11.32
2023-02-18T00:15:10.894Z,11.33
2023-02-18T00:17:38.095Z,11.35
2023-02-18T00:20:07.058Z,11.35
2023-02-18T00:22:33.851Z,11.35
2023-02-18T00:25:00.650Z,11.36
2023-02-18T00:27:27.453Z,11.36
2023-02-18T00:29:54.292Z,11.36
2023-02-18T00:32:21.123Z,11.37
2023-02-18T00:34:48.053Z,11.39
2023-02-18T00:37:14.815Z,11.38
2023-02-18T00:39:41.620Z,11.37
2023-02-18T00:42:08.369Z,11.40
2023-02-18T00:44:35.150Z,11.41
2023-02-18T00:47:01.927Z,11.40
2023-02-18T00:49:28.735Z,11.41
2023-02-18T00:51:55.508Z,11.41
2023-02-18T00:54:22.268Z,11.42
2023-02-18T00:56:49.039Z,11.41
2023-02-18T00:59:15.897Z,11.42
2023-02-18T01:01:42.712Z,11.40
2023-02-18T01:04:09.589Z,11.38
2023-02-18T01:06:37.399Z,11.38
2023-02-18T01:09:05.567Z,11.36
2023-02-18T01:11:33.105Z,11.36
2023-02-18T01:13:59.880Z,11.36
2023-02-18T01:16:26.911Z,11.34
2023-02-18T01:18:53.744Z,11.36
2023-02-18T01:21:20.745Z,11.37
2023-02-18T01:23:47.590Z,11.39
2023-02-18T01:26:14.477Z,11.43
2023-02-18T01:28:41.669Z,11.45
2023-02-18T01:31:11.717Z,11.48
2023-02-18T01:33:38.675Z,11.51
2023-02-18T01:36:07.015Z,11.54
2023-02-18T01:38:34.309Z,11.57
2023-02-18T01:41:01.086Z,11.59
2023-02-18T01:43:27.854Z,11.60
2023-02-18T01:46:08.226Z,11.63
2023-02-18T01:48:48.022Z,11.62
2023-02-18T01:51:24.219Z,11.63
2023-02-18T01:54:07.820Z,11.64
2023-02-18T01:56:39.187Z,11.64
2023-02-18T01:59:15.781Z,11.66
2023-02-18T02:01:45.164Z,11.65
2023-02-18T02:04:12.292Z,11.65
2023-02-18T02:06:39.127Z,11.67
2023-02-18T02:09:09.554Z,11.69
2023-02-18T02:12:23.629Z,11.69
2023-02-18T02:15:36.952Z,11.69
2023-02-18T02:18:21.911Z,11.68
2023-02-18T02:21:42.200Z,11.68
2023-02-18T02:24:39.473Z,11.69
2023-02-18T02:27:29.575Z,11.69
2023-02-18T02:30:31.195Z,11.72
2023-02-18T02:33:20.519Z,11.72
2023-02-18T02:36:01.154Z,11.76
2023-02-18T02:38:55.445Z,11.77
2023-02-18T02:41:52.922Z,11.77
2023-02-18T02:44:51.916Z,11.75
2023-02-18T02:47:28.606Z,11.72
2023-02-18T02:50:09.849Z,11.73
2023-02-18T02:52:52.217Z,11.75
2023-02-18T02:55:19.241Z,11.74
2023-02-18T02:57:51.758Z,11.75
2023-02-18T03:00:23.972Z,11.77
2023-02-18T03:03:32.256Z,11.77
2023-02-18T03:06:06.710Z,11.77
2023-02-18T03:08:52.031Z,11.77
2023-02-18T03:11:19.258Z,11.77
2023-02-18T03:14:18.460Z,11.78
2023-02-18T03:17:00.097Z,11.80
2023-02-18T03:19:47.570Z,11.80
2023-02-18T03:22:25.964Z,11.82
2023-02-18T03:24:56.674Z,11.85
2023-02-18T03:27:26.259Z,11.87
2023-02-18T03:30:08.323Z,11.89
2023-02-18T03:32:36.137Z,11.89
2023-02-18T03:35:10.206Z,11.91
2023-02-18T03:37:44.864Z,11.92
2023-02-18T03:40:12.201Z,11.93
2023-02-18T03:42:38.996Z,11.95
2023-02-18T03:45:06.066Z,11.96
2023-02-18T03:47:33.160Z,11.98
2023-02-18T03:49:59.909Z,12.00
2023-02-18T03:52:26.669Z,12.01
2023-02-18T03:54:53.437Z,12.02
2023-02-18T03:57:20.203Z,12.03
2023-02-18T03:59:46.980Z,12.05
2023-02-18T04:02:13.747Z,12.06
2023-02-18T04:04:40.537Z,12.07
2023-02-18T04:07:07.426Z,12.07
2023-02-18T04:09:34.193Z,12.07
2023-02-18T04:12:00.980Z,12.07
2023-02-18T04:14:27.767Z,12.06
2023-02-18T04:16:54.612Z,12.05
2023-02-18T04:19:21.428Z,12.05
2023-02-18T04:21:48.239Z,12.04
2023-02-18T04:24:15.024Z,12.05
2023-02-18T04:26:41.871Z,12.04
2023-02-18T04:29:08.683Z,12.03
2023-02-18T04:31:35.579Z,12.03
2023-02-18T04:34:02.436Z,12.01
2023-02-18T04:36:29.276Z,11.99
2023-02-18T04:38:56.128Z,11.99
2023-02-18T04:41:22.917Z,11.99
2023-02-18T04:43:49.738Z,11.99
2023-02-18T04:46:16.607Z,11.98
2023-02-18T04:48:43.455Z,11.97
2023-02-18T04:51:10.291Z,11.94
2023-02-18T04:53:37.055Z,11.91
2023-02-18T04:56:04.166Z,11.89
2023-02-18T04:58:30.949Z,11.84
2023-02-18T05:01:03.054Z,11.82
2023-02-18T05:03:30.387Z,11.78
2023-02-18T05:05:57.347Z,11.76
2023-02-18T05:08:24.136Z,11.73
2023-02-18T05:10:50.981Z,11.71
2023-02-18T05:13:18.038Z,11.67
2023-02-18T05:15:44.824Z,11.64
2023-02-18T05:18:11.636Z,11.63
2023-02-18T05:20:38.408Z,11.61
2023-02-18T05:23:05.207Z,11.57
2023-02-18T05:25:32.130Z,11.56
2023-02-18T05:27:58.889Z,11.55
2023-02-18T05:30:25.684Z,11.52
2023-02-18T05:32:52.508Z,11.52
2023-02-18T05:35:19.277Z,11.50
2023-02-18T05:37:46.055Z,11.51
2023-02-18T05:40:12.903Z,11.51
2023-02-18T05:42:39.694Z,11.52
2023-02-18T05:45:07.646Z,11.50
2023-02-18T05:47:34.437Z,11.50
2023-02-18T05:50:01.222Z,11.50
2023-02-18T05:52:28.122Z,11.49
2023-02-18T05:54:54.984Z,11.49
2023-02-18T05:57:21.765Z,11.48
2023-02-18T05:59:48.538Z,11.50
2023-02-18T06:02:15.334Z,11.50
2023-02-18T06:04:42.118Z,11.51
2023-02-18T06:07:08.907Z,11.52
2023-02-18T06:09:35.713Z,11.52
2023-02-18T06:12:02.513Z,11.54
2023-02-18T06:14:29.288Z,11.54
2023-02-18T06:16:56.065Z,11.53
2023-02-18T06:19:23.229Z,11.55
2023-02-18T06:21:50.039Z,11.56
2023-02-18T06:24:16.924Z,11.59
2023-02-18T06:26:43.683Z,11.58
2023-02-18T06:29:10.473Z,11.60
2023-02-18T06:31:37.351Z,11.60
2023-02-18T06:34:04.168Z,11.61
2023-02-18T06:36:31.043Z,11.61
2023-02-18T06:38:59.206Z,11.62
2023-02-18T06:41:25.959Z,11.63
2023-02-18T06:43:52.736Z,11.62
2023-02-18T06:46:19.565Z,11.62
2023-02-18T06:48:46.463Z,11.62
2023-02-18T06:51:13.231Z,11.63
2023-02-18T06:53:40.039Z,11.64
2023-02-18T06:56:07.214Z,11.64
2023-02-18T06:58:34.198Z,11.64
2023-02-18T07:01:01.000Z,11.64
2023-02-18T07:03:28.132Z,11.64
2023-02-18T07:05:56.216Z,11.65
2023-02-18T07:08:23.149Z,11.67
2023-02-18T07:10:49.997Z,11.66
2023-02-18T07:13:16.809Z,11.67
2023-02-18T07:15:43.572Z,11.69
2023-02-18T07:18:10.463Z,11.68
2023-02-18T07:20:37.297Z,11.70
2023-02-18T07:23:04.156Z,11.70
2023-02-18T07:25:31.020Z,11.69
2023-02-18T07:27:57.793Z,11.71
2023-02-18T07:30:24.748Z,11.72
2023-02-18T07:32:51.568Z,11.73
2023-02-18T07:35:18.399Z,11.72
2023-02-18T07:37:50.290Z,11.75
2023-02-18T07:40:22.045Z,11.73
2023-02-18T07:42:49.479Z,11.73
2023-02-18T07:45:16.279Z,11.73
2023-02-18T07:47:47.887Z,11.73
2023-02-18T07:50:14.746Z,11.75
2023-02-18T07:52:41.722Z,11.75
2023-02-18T07:55:08.992Z,11.76
2023-02-18T07:57:55.763Z,11.78
2023-02-18T08:00:22.965Z,11.81
2023-02-18T08:02:49.777Z,11.82
2023-02-18T08:05:16.605Z,11.83
2023-02-18T08:07:43.569Z,11.87
2023-02-18T08:10:10.497Z,11.90
2023-02-18T08:12:37.369Z,11.93
2023-02-18T08:15:08.106Z,11.96
2023-02-18T08:17:35.227Z,12.00
2023-02-18T08:20:02.298Z,12.03
2023-02-18T08:22:29.204Z,12.05
2023-02-18T08:24:56.364Z,12.09
2023-02-18T08:27:24.195Z,12.12
2023-02-18T08:29:51.549Z,12.16
2023-02-18T08:32:18.335Z,12.18
2023-02-18T08:34:45.110Z,12.23
2023-02-18T08:37:11.956Z,12.28
2023-02-18T08:39:39.887Z,12.32
2023-02-18T08:42:07.048Z,12.35
2023-02-18T08:44:33.859Z,12.40
2023-02-18T08:47:00.656Z,12.44
2023-02-18T08:49:27.424Z,12.50
2023-02-18T08:51:55.098Z,12.55
2023-02-18T08:54:21.907Z,12.59
2023-02-18T08:56:48.700Z,12.65
2023-02-18T08:59:15.798Z,12.69
2023-02-18T09:01:42.713Z,12.74
2023-02-18T09:04:09.626Z,12.79
2023-02-18T09:06:40.235Z,12.89
2023-02-18T09:09:07.414Z,12.95
2023-02-18T09:11:34.655Z,13.02
2023-02-18T09:14:01.518Z,13.09
2023-02-18T09:16:29.888Z,13.18
2023-02-18T09:18:58.697Z,13.26
2023-02-18T09:21:26.774Z,13.31
2023-02-18T09:23:53.596Z,13.38
2023-02-18T09:26:23.217Z,13.44
2023-02-18T09:28:51.808Z,13.53
2023-02-18T09:31:27.223Z,13.60
2023-02-18T09:34:01.571Z,13.67
2023-02-18T09:36:28.986Z,13.72
2023-02-18T09:38:55.837Z,13.78
2023-02-18T09:41:53.645Z,13.85
2023-02-18T09:44:31.251Z,13.90
2023-02-18T09:47:02.628Z,13.93
2023-02-18T09:49:37.244Z,13.97
2023-02-18T09:52:29.872Z,14.00
2023-02-18T09:54:56.831Z,14.02
2023-02-18T09:57:35.375Z,14.07
2023-02-18T10:00:34.967Z,14.10
2023-02-18T10:03:23.960Z,14.14
2023-02-18T10:06:01.672Z,14.17
2023-02-18T10:08:43.394Z,14.21
2023-02-18T10:11:23.401Z,14.23
2023-02-18T10:13:57.516Z,14.25
2023-02-18T10:16:25.706Z,14.26
2023-02-18T10:18:57.927Z,14.30
2023-02-18T10:21:32.894Z,14.31
2023-02-18T10:24:12.729Z,14.33
2023-02-18T10:26:40.398Z,14.35
2023-02-18T10:29:18.088Z,14.38
2023-02-18T10:32:08.588Z,14.40
2023-02-18T10:34:54.017Z,14.42
2023-02-18T10:38:08.335Z,14.44
2023-02-18T10:41:03.448Z,14.43
2023-02-18T10:44:18.361Z,14.42
2023-02-18T10:47:11.830Z,14.41
2023-02-18T10:49:50.342Z,14.40
2023-02-18T10:52:19.069Z,14.41
2023-02-18T10:55:06.541Z,14.43
2023-02-18T10:57:34.009Z,14.45
2023-02-18T11:00:25.172Z,14.47
2023-02-18T11:03:18.471Z,14.49
2023-02-18T11:06:07.227Z,14.51
2023-02-18T11:08:44.002Z,14.53
2023-02-18T11:11:23.599Z,14.55
2023-02-18T11:13:57.387Z,14.56
2023-02-18T11:16:37.754Z,14.57
2023-02-18T11:19:04.887Z,14.59
2023-02-18T11:21:38.757Z,14.59
2023-02-18T11:24:16.690Z,14.59
2023-02-18T11:26:46.154Z,14.59
2023-02-18T11:29:24.547Z,14.58
2023-02-18T11:31:55.823Z,14.57
2023-02-18T11:34:34.084Z,14.57
2023-02-18T11:37:21.869Z,14.55
2023-02-18T11:39:53.383Z,14.50
2023-02-18T11:42:25.164Z,14.52
2023-02-18T11:44:55.782Z,14.53
2023-02-18T11:47:28.371Z,14.55
2023-02-18T11:50:14.747Z,14.57
2023-02-18T11:52:47.634Z,14.58
2023-02-18T11:55:18.404Z,14.56
2023-02-18T11:57:50.505Z,14.57
2023-02-18T12:00:35.613Z,14.59
2023-02-18T12:03:13.786Z,14.59
2023-02-18T12:05:42.107Z,14.56
2023-02-18T12:08:25.734Z,14.57
2023-02-18T12:11:01.568Z,14.57
2023-02-18T12:13:39.554Z,14.56
2023-02-18T12:16:32.312Z,14.56
2023-02-18T12:19:37.067Z,14.55
2023-02-18T12:22:38.765Z,14.53
2023-02-18T12:25:40.293Z,14.51
2023-02-18T12:28:51.313Z,14.47
2023-02-18T12:31:46.392Z,14.43
2023-02-18T12:34:34.812Z,14.40
2023-02-18T12:37:30.599Z,14.38
2023-02-18T12:40:18.997Z,14.34
2023-02-18T12:43:39.057Z,14.31
2023-02-18T12:46:22.424Z,14.29
2023-02-18T12:49:18.967Z,14.30
2023-02-18T12:52:18.846Z,14.30
2023-02-18T12:55:42.183Z,14.25
2023-02-18T12:58:45.332Z,14.22
2023-02-18T13:01:42.101Z,14.16
2023-02-18T13:04:36.635Z,14.12
2023-02-18T13:07:32.903Z,14.11
2023-02-18T13:10:37.992Z,14.10
2023-02-18T13:13:17.541Z,14.07
2023-02-18T13:16:04.346Z,14.08
2023-02-18T13:18:38.014Z,14.07
2023-02-18T13:21:07.929Z,14.08
2023-02-18T13:23:52.416Z,14.11
2023-02-18T13:26:21.365Z,14.09
2023-02-18T13:29:32.660Z,14.10
2023-02-18T13:32:25.048Z,14.09
2023-02-18T13:35:04.617Z,14.12
2023-02-18T13:38:17.343Z,14.14
2023-02-18T13:40:44.484Z,14.13
2023-02-18T13:43:35.239Z,14.13
2023-02-18T13:46:08.938Z,14.14
2023-02-18T13:48:44.704Z,14.13
2023-02-18T13:51:34.173Z,14.14
2023-02-18T13:54:09.708Z,14.16
2023-02-18T13:56:43.537Z,14.19
2023-02-18T13:59:21.895Z,14.20
2023-02-18T14:01:51.173Z,14.20
2023-02-18T14:04:41.693Z,14.22
2023-02-18T14:07:33.370Z,14.24
2023-02-18T14:10:22.700Z,14.24
2023-02-18T14:12:58.852Z,14.26
2023-02-18T14:15:25.626Z,14.27
2023-02-18T14:18:13.672Z,14.30
2023-02-18T14:20:40.429Z,14.34
2023-02-18T14:23:38.326Z,14.38
2023-02-18T14:26:12.286Z,14.40
2023-02-18T14:28:47.139Z,14.43
2023-02-18T14:31:14.263Z,14.44
2023-02-18T14:33:51.532Z,14.47
2023-02-18T14:36:36.759Z,14.46
2023-02-18T14:39:45.486Z,14.48
2023-02-18T14:43:08.148Z,14.47
2023-02-18T14:45:59.150Z,14.46
2023-02-18T14:49:11.204Z,14.46
2023-02-18T14:51:42.035Z,14.46
2023-02-18T14:54:16.221Z,14.48
2023-02-18T14:56:59.348Z,14.46
2023-02-18T14:59:30.475Z,14.46
2023-02-18T15:01:57.855Z,14.45
2023-02-18T15:04:26.497Z,14.45
2023-02-18T15:07:02.220Z,14.46
2023-02-18T15:09:29.642Z,14.43
2023-02-18T15:12:06.660Z,14.43
2023-02-18T15:14:42.478Z,14.40
2023-02-18T15:17:19.320Z,14.39
2023-02-18T15:19:55.771Z,14.36
2023-02-18T15:22:26.160Z,14.34
2023-02-18T15:24:55.792Z,14.32
2023-02-18T15:27:32.067Z,14.33
2023-02-18T15:30:22.664Z,14.30
2023-02-18T15:32:55.509Z,14.28
2023-02-18T15:35:29.117Z,14.26
2023-02-18T15:38:17.104Z,14.26
2023-02-18T15:40:48.059Z,14.24
2023-02-18T15:43:22.526Z,14.23
2023-02-18T15:48:48.951Z,14.21
2023-02-18T15:51:25.331Z,14.18
2023-02-18T15:53:57.072Z,14.16
2023-02-18T15:56:35.744Z,14.18
2023-02-18T15:59:19.619Z,14.15
2023-02-18T16:01:53.332Z,14.14
2023-02-18T16:04:32.615Z,14.13
2023-02-18T16:07:05.377Z,14.10
2023-02-18T16:09:42.711Z,14.10
2023-02-18T16:12:29.070Z,14.07
2023-02-18T16:14:58.218Z,14.05
2023-02-18T16:17:37.293Z,14.01
2023-02-18T16:20:37.684Z,13.97
2023-02-18T16:23:14.114Z,13.95
2023-02-18T16:25:48.952Z,13.93
2023-02-18T16:28:31.785Z,13.83
2023-02-18T16:30:58.731Z,13.83
2023-02-18T16:33:25.546Z,13.85
2023-02-18T16:35:52.390Z,13.86
2023-02-18T16:38:22.815Z,13.88
2023-02-18T16:40:50.725Z,13.89
2023-02-18T16:43:21.293Z,13.88
2023-02-18T16:45:59.836Z,13.88
2023-02-18T16:48:40.753Z,13.90
2023-02-18T16:51:15.290Z,13.90
2023-02-18T16:53:42.238Z,13.91
2023-02-18T16:56:25.212Z,13.94
2023-02-18T16:58:52.049Z,13.93
2023-02-18T17:01:34.432Z,13.95
2023-02-18T17:04:02.665Z,13.92
2023-02-18T17:06:30.166Z,13.90
2023-02-18T17:08:57.110Z,13.87
2023-02-18T17:11:31.962Z,13.86
2023-02-18T17:13:59.684Z,13.85
2023-02-18T17:16:27.772Z,13.86
2023-02-18T17:18:54.587Z,13.87
2023-02-18T17:21:24.701Z,13.88
2023-02-18T17:23:52.001Z,13.87
2023-02-18T17:26:22.933Z,13.88
2023-02-18T17:28:49.853Z,13.91
2023-02-18T17:31:27.909Z,13.91
2023-02-18T17:33:56.972Z,13.87
2023-02-18T17:36:23.743Z,13.87
2023-02-18T17:38:50.552Z,13.87
2023-02-18T17:41:17.604Z,13.88
2023-02-18T17:43:44.675Z,13.88
2023-02-18T17:46:14.316Z,13.88
2023-02-18T17:48:41.977Z,13.87
2023-02-18T17:51:24.598Z,13.87
2023-02-18T17:53:51.913Z,13.86
2023-02-18T17:56:18.877Z,13.87
2023-02-18T17:58:46.455Z,13.85
2023-02-18T18:01:13.421Z,13.86
2023-02-18T18:03:40.204Z,13.84
2023-02-18T18:06:17.203Z,13.85
2023-02-18T18:08:44.596Z,13.84
2023-02-18T18:11:20.776Z,13.85
2023-02-18T18:13:54.511Z,13.83
2023-02-18T18:16:21.844Z,13.83
2023-02-18T18:18:48.700Z,13.83
2023-02-18T18:21:38.755Z,13.81
2023-02-18T18:24:05.891Z,13.81
2023-02-18T18:26:32.672Z,13.80
2023-02-18T18:28:59.461Z,13.81
2023-02-18T18:31:26.311Z,13.79
2023-02-18T18:33:53.816Z,13.79
2023-02-18T18:36:23.870Z,13.79
2023-02-18T18:38:50.740Z,13.77
2023-02-18T18:41:20.773Z,13.75
2023-02-18T18:43:49.171Z,13.75
2023-02-18T18:46:15.983Z,13.74
2023-02-18T18:48:42.762Z,13.73
2023-02-18T18:51:18.995Z,13.72
2023-02-18T18:53:45.885Z,13.72
2023-02-18T18:56:13.400Z,13.73
2023-02-18T18:58:40.390Z,13.72
2023-02-18T19:01:20.233Z,13.72
2023-02-18T19:03:48.370Z,13.71
2023-02-18T19:06:16.675Z,13.69
2023-02-18T19:08:45.126Z,13.71
2023-02-18T19:11:13.147Z,13.71
2023-02-18T19:13:40.426Z,13.72
2023-02-18T19:16:25.190Z,13.73
2023-02-18T19:18:52.837Z,13.70
2023-02-18T19:21:19.622Z,13.70
2023-02-18T19:23:46.537Z,13.71
2023-02-18T19:26:15.830Z,13.70
2023-02-18T19:28:44.284Z,13.69
2023-02-18T19:31:11.840Z,13.70
2023-02-18T19:33:39.406Z,13.68
2023-02-18T19:36:11.332Z,13.68
2023-02-18T19:38:38.609Z,13.67
2023-02-18T19:41:14.597Z,13.67
2023-02-18T19:43:42.706Z,13.66
2023-02-18T19:46:15.201Z,13.62
2023-02-18T19:48:42.451Z,13.59
2023-02-18T19:51:10.038Z,13.57
2023-02-18T19:53:37.203Z,13.52
2023-02-18T19:56:07.799Z,13.48
2023-02-18T19:58:35.456Z,13.45
2023-02-18T20:01:02.424Z,13.43
2023-02-18T20:03:29.448Z,13.41
2023-02-18T20:05:56.222Z,13.40
2023-02-18T20:08:23.012Z,13.38
2023-02-18T20:10:59.801Z,13.38
2023-02-18T20:13:27.106Z,13.35
2023-02-18T20:15:54.065Z,13.36
2023-02-18T20:18:20.891Z,13.34
2023-02-18T20:20:49.216Z,13.33
2023-02-18T20:23:16.128Z,13.31
2023-02-18T20:25:42.896Z,13.28
2023-02-18T20:28:09.655Z,13.26
2023-02-18T20:30:36.503Z,13.25
2023-02-18T20:33:03.435Z,13.24
2023-02-18T20:35:30.202Z,13.23
2023-02-18T20:37:56.971Z,13.23
2023-02-18T20:40:23.753Z,13.23
2023-02-18T20:42:50.532Z,13.25
2023-02-18T20:45:17.987Z,13.25
2023-02-18T20:47:45.017Z,13.26
2023-02-18T20:50:11.834Z,13.27
2023-02-18T20:52:38.618Z,13.27
2023-02-18T20:55:05.703Z,13.25
2023-02-18T20:57:32.474Z,13.24
2023-02-18T20:59:59.591Z,13.21
2023-02-18T21:02:26.990Z,13.20
2023-02-18T21:04:53.798Z,13.16
2023-02-18T21:07:22.198Z,13.15
2023-02-18T21:09:49.003Z,13.12
2023-02-18T21:12:15.753Z,13.10
2023-02-18T21:14:42.529Z,13.09
2023-02-18T21:17:09.703Z,13.06
2023-02-18T21:19:36.520Z,13.05
2023-02-18T21:22:03.331Z,13.02
2023-02-18T21:24:31.825Z,13.03
2023-02-18T21:26:58.616Z,13.02
2023-02-18T21:29:26.690Z,13.02
2023-02-18T21:31:53.497Z,13.02
2023-02-18T21:34:21.004Z,13.01
2023-02-18T21:36:48.142Z,13.02
2023-02-18T21:39:14.896Z,13.02
2023-02-18T21:41:41.692Z,13.03
2023-02-18T21:44:09.624Z,13.04
2023-02-18T21:46:37.046Z,13.06
2023-02-18T21:49:12.283Z,13.08
2023-02-18T21:52:02.138Z,13.09
2023-02-18T21:54:55.240Z,13.07
2023-02-18T21:57:22.115Z,13.09
2023-02-18T21:59:49.084Z,13.08
2023-02-18T22:02:23.175Z,13.12
2023-02-18T22:04:50.614Z,13.12
2023-02-18T22:07:19.679Z,13.14
2023-02-18T22:09:48.625Z,13.14
2023-02-18T22:12:16.847Z,13.14
2023-02-18T22:14:44.178Z,13.12
2023-02-18T22:17:11.580Z,13.12
2023-02-18T22:19:38.441Z,13.12
2023-02-18T22:22:05.597Z,13.12
2023-02-18T22:24:32.506Z,13.11
2023-02-18T22:27:01.399Z,13.10
2023-02-18T22:29:30.291Z,13.07
2023-02-18T22:31:57.300Z,13.04
2023-02-18T22:34:24.426Z,13.02
2023-02-18T22:36:51.202Z,12.99
2023-02-18T22:39:18.173Z,12.95
2023-02-18T22:41:44.969Z,12.92
2023-02-18T22:44:15.240Z,12.91
2023-02-18T22:46:42.302Z,12.90
2023-02-18T22:49:09.167Z,12.88
2023-02-18T22:51:39.291Z,12.85
2023-02-18T22:54:10.825Z,12.84
2023-02-18T22:56:37.608Z,12.84
2023-02-18T22:59:04.587Z,12.84
2023-02-18T23:01:37.648Z,12.82
2023-02-18T23:04:09.861Z,12.81
2023-02-18T23:06:38.909Z,12.79
2023-02-18T23:09:07.647Z,12.80
2023-02-18T23:11:34.669Z,12.81
2023-02-18T23:14:19.276Z,12.83
2023-02-18T23:17:15.162Z,12.79
2023-02-18T23:19:53.900Z,12.79
2023-02-18T23:22:37.735Z,12.81
2023-02-18T23:25:05.708Z,12.84
2023-02-18T23:27:32.460Z,12.86
2023-02-18T23:29:59.257Z,12.88
2023-02-18T23:32:27.716Z,12.89
2023-02-18T23:34:54.517Z,12.90
2023-02-18T23:37:43.602Z,12.92
2023-02-18T23:40:13.555Z,12.92
2023-02-18T23:42:40.307Z,12.94
2023-02-18T23:45:07.481Z,12.94
2023-02-18T23:47:34.267Z,12.96
2023-02-18T23:50:01.033Z,12.96
2023-02-18T23:52:27.809Z,12.96
2023-02-18T23:54:54.549Z,12.96
2023-02-18T23:57:21.297Z,12.96
2023-02-18T23:59:48.131Z,12.97
